< < Back
Terminal Aerodrome Forecast


Current Version              Previous Versions:   1  2  3  4  5  6  7  8  9  

Terminal Aerodrome Forecast

799
FTUS42 KGSP 262339
TAFAVL
TAF
KAVL 262339Z 2700/2724 34011KT P6SM BKN027
     FM270300 34006KT P6SM BKN015
     FM271200 35006KT P6SM BKN024
     FM271700 35006KT P6SM SCT040=

Latest METAR

903
SAUS70 KWBC 270700 RRC
MTRAVL
METAR KAVL 270654Z AUTO 31003KT 10SM CLR M02/M06 A3014 RMK AO2 SLP214
T10171056


USA.gov is the U.S. government's official web portal to all federal, state and local government web resources and services.